createdAt,value
2018-04-30T00:02:15.429Z,82.70
2018-04-30T00:04:43.003Z,83.00
2018-04-30T00:07:10.558Z,84.80
2018-04-30T00:09:38.113Z,86.80
2018-04-30T00:12:05.698Z,87.60
2018-04-30T00:14:33.226Z,88.10
2018-04-30T00:17:00.800Z,88.10
2018-04-30T00:19:28.348Z,88.00
2018-04-30T00:21:55.919Z,88.40
2018-04-30T00:24:23.464Z,88.90
2018-04-30T00:26:51.023Z,89.30
2018-04-30T00:29:18.564Z,89.70
2018-04-30T00:31:46.899Z,90.20
2018-04-30T00:34:14.439Z,90.20
2018-04-30T00:36:42.006Z,90.30
2018-04-30T00:39:09.555Z,90.40
2018-04-30T00:41:37.132Z,90.40
2018-04-30T00:44:04.672Z,90.40
2018-04-30T00:46:32.236Z,90.30
2018-04-30T00:48:59.791Z,90.00
2018-04-30T00:51:27.361Z,89.90
2018-04-30T00:53:54.906Z,89.80
2018-04-30T00:56:22.480Z,89.50
2018-04-30T00:58:50.031Z,88.60
2018-04-30T01:01:17.591Z,88.30
2018-04-30T01:03:45.134Z,88.00
2018-04-30T01:06:12.695Z,86.60
2018-04-30T01:08:40.245Z,85.60
2018-04-30T01:11:07.812Z,85.20
2018-04-30T01:13:35.372Z,84.50
2018-04-30T01:16:02.947Z,83.90
2018-04-30T01:18:30.484Z,84.40
2018-04-30T01:20:58.028Z,83.10
2018-04-30T01:23:26.359Z,82.50
2018-04-30T01:25:53.900Z,82.50
2018-04-30T01:28:21.468Z,82.40
2018-04-30T01:30:49.023Z,82.40
2018-04-30T01:33:16.590Z,82.30
2018-04-30T01:35:44.121Z,82.10
2018-04-30T01:38:11.676Z,82.20
2018-04-30T01:40:39.219Z,82.50
2018-04-30T01:43:07.535Z,80.30
2018-04-30T01:45:35.063Z,80.30
2018-04-30T01:48:03.403Z,74.10
2018-04-30T01:50:30.947Z,74.10
2018-04-30T01:52:58.517Z,73.50
2018-04-30T01:55:26.055Z,72.80
2018-04-30T01:57:53.617Z,72.00
2018-04-30T02:00:21.171Z,71.60
2018-04-30T02:02:49.756Z,71.20
2018-04-30T02:05:17.318Z,70.40
2018-04-30T02:07:44.887Z,69.20
2018-04-30T02:10:12.431Z,69.10
2018-04-30T02:12:40.019Z,69.40
2018-04-30T02:15:07.549Z,68.10
2018-04-30T02:17:35.112Z,68.50
2018-04-30T02:20:02.651Z,68.60
2018-04-30T02:22:30.229Z,68.30
2018-04-30T02:24:57.784Z,67.60
2018-04-30T02:27:25.343Z,67.20
2018-04-30T02:29:52.884Z,66.60
2018-04-30T02:32:20.466Z,66.80
2018-04-30T02:34:48.015Z,66.60
2018-04-30T02:37:15.586Z,66.90
2018-04-30T02:39:43.132Z,67.30
2018-04-30T02:42:10.692Z,67.40
2018-04-30T02:44:38.245Z,67.40
2018-04-30T02:47:05.777Z,67.60
2018-04-30T02:49:34.103Z,67.90
2018-04-30T02:52:01.654Z,67.80
2018-04-30T02:54:29.221Z,67.80
2018-04-30T02:56:56.751Z,68.10
2018-04-30T02:59:24.326Z,68.70
2018-04-30T03:01:51.879Z,69.20
2018-04-30T03:04:19.444Z,69.20
2018-04-30T03:06:46.989Z,69.70
2018-04-30T03:09:15.319Z,69.60
2018-04-30T03:11:42.872Z,69.60
2018-04-30T03:14:10.441Z,68.90
2018-04-30T03:16:37.997Z,68.10
2018-04-30T03:19:05.634Z,67.30
2018-04-30T03:21:33.180Z,67.70
2018-04-30T03:24:00.742Z,66.60
2018-04-30T03:26:28.282Z,65.90
2018-04-30T03:28:56.602Z,68.70
2018-04-30T03:31:24.157Z,68.60
2018-04-30T03:33:51.724Z,70.10
2018-04-30T03:36:19.272Z,72.40
2018-04-30T03:38:46.826Z,73.60
2018-04-30T03:41:14.387Z,74.90
2018-04-30T03:43:41.946Z,76.00
2018-04-30T03:46:09.579Z,77.00
2018-04-30T03:48:37.245Z,79.20
2018-04-30T03:51:04.905Z,80.00
2018-04-30T03:53:32.605Z,82.10
2018-04-30T03:56:00.158Z,81.50
2018-04-30T03:58:27.720Z,83.60
2018-04-30T04:01:07.215Z,84.50
2018-04-30T04:03:47.350Z,85.10
2018-04-30T04:09:23.487Z,85.60
2018-04-30T04:11:51.030Z,86.40
2018-04-30T04:14:18.603Z,89.60
2018-04-30T04:16:46.135Z,90.40
2018-04-30T04:19:14.466Z,90.50
2018-04-30T04:21:42.007Z,90.50
2018-04-30T04:24:09.578Z,91.20
2018-04-30T04:26:37.127Z,91.50
2018-04-30T04:29:04.695Z,92.40
2018-04-30T04:31:32.239Z,92.00
2018-04-30T04:33:59.799Z,91.50
2018-04-30T04:36:27.344Z,92.10
2018-04-30T04:38:54.903Z,93.10
2018-04-30T04:41:22.478Z,92.30
2018-04-30T04:43:50.019Z,93.40
2018-04-30T04:46:17.666Z,93.60
2018-04-30T04:48:45.247Z,94.00
2018-04-30T04:51:12.818Z,94.40
2018-04-30T04:53:40.363Z,94.40
2018-04-30T04:56:07.935Z,94.30
2018-04-30T04:58:35.479Z,94.00
2018-04-30T05:01:03.057Z,94.20
2018-04-30T05:03:30.599Z,94.50
2018-04-30T05:05:58.174Z,94.50
2018-04-30T05:08:25.701Z,94.90
2018-04-30T05:10:54.099Z,94.90
2018-04-30T05:13:21.591Z,94.90
2018-04-30T05:15:49.160Z,94.70
2018-04-30T05:18:16.705Z,94.70
2018-04-30T05:20:44.266Z,94.20
2018-04-30T05:23:11.804Z,94.80
2018-04-30T05:25:39.371Z,94.60
2018-04-30T05:28:06.921Z,93.80
2018-04-30T05:30:34.487Z,93.60
2018-04-30T05:33:02.026Z,93.30
2018-04-30T05:35:29.594Z,94.20
2018-04-30T05:37:57.138Z,93.40
2018-04-30T05:40:25.470Z,93.30
2018-04-30T05:42:53.790Z,93.60
2018-04-30T05:45:22.119Z,92.00
2018-04-30T05:47:49.653Z,92.00
2018-04-30T05:50:17.221Z,91.10
2018-04-30T05:52:44.767Z,90.90
2018-04-30T05:55:12.377Z,91.70
2018-04-30T05:57:39.891Z,92.30
2018-04-30T06:00:07.462Z,90.90
2018-04-30T06:02:35.001Z,90.50
2018-04-30T06:05:02.538Z,89.50
2018-04-30T06:07:30.874Z,89.90
2018-04-30T06:09:58.419Z,89.90
2018-04-30T06:12:25.983Z,88.90
2018-04-30T06:14:53.519Z,90.00
2018-04-30T06:17:21.085Z,86.90
2018-04-30T06:19:48.612Z,88.00
2018-04-30T06:22:16.939Z,85.50
2018-04-30T06:24:44.470Z,85.50
2018-04-30T06:27:12.058Z,85.70
2018-04-30T06:29:39.600Z,83.90
2018-04-30T06:32:07.168Z,85.90
2018-04-30T06:34:34.702Z,84.90
2018-04-30T06:37:02.267Z,82.80
2018-04-30T06:39:29.812Z,82.20
2018-04-30T06:41:58.160Z,81.20
2018-04-30T06:44:25.693Z,81.20
2018-04-30T06:46:53.268Z,82.20
2018-04-30T06:49:20.806Z,85.00
2018-04-30T06:51:48.368Z,82.00
2018-04-30T06:54:15.906Z,83.60
2018-04-30T06:56:43.486Z,83.30
2018-04-30T06:59:11.029Z,82.10
2018-04-30T07:01:38.594Z,81.50
2018-04-30T07:04:06.121Z,80.20
2018-04-30T07:06:34.451Z,80.60
2018-04-30T07:09:02.041Z,79.90
2018-04-30T07:11:29.585Z,79.30
2018-04-30T07:13:57.130Z,78.40
2018-04-30T07:16:24.689Z,77.80
2018-04-30T07:18:52.213Z,78.70
2018-04-30T07:21:19.780Z,79.20
2018-04-30T07:23:47.319Z,77.70
2018-04-30T07:26:15.624Z,77.90
2018-04-30T07:28:43.194Z,77.80
2018-04-30T07:31:10.735Z,77.10
2018-04-30T07:33:38.301Z,76.10
2018-04-30T07:36:05.850Z,76.80
2018-04-30T07:38:33.407Z,75.00
2018-04-30T07:41:00.937Z,73.80
2018-04-30T07:43:29.262Z,69.70
2018-04-30T07:45:56.793Z,69.60
2018-04-30T07:48:24.363Z,69.60
2018-04-30T07:50:51.920Z,67.90
2018-04-30T07:53:19.487Z,68.10
2018-04-30T07:55:47.021Z,67.70
2018-04-30T07:58:15.353Z,68.50
2018-04-30T08:00:42.900Z,68.40
2018-04-30T08:03:10.534Z,67.90
2018-04-30T08:05:38.043Z,66.80
2018-04-30T08:08:05.607Z,66.10
2018-04-30T08:10:33.155Z,65.70
2018-04-30T08:13:00.715Z,65.30
2018-04-30T08:15:28.271Z,64.80
2018-04-30T08:17:55.843Z,64.00
2018-04-30T08:20:23.400Z,63.70
2018-04-30T08:22:50.975Z,62.90
2018-04-30T08:25:19.292Z,60.00
2018-04-30T08:27:46.853Z,59.40
2018-04-30T08:30:14.396Z,56.90
2018-04-30T08:32:41.972Z,57.30
2018-04-30T08:35:09.522Z,57.50
2018-04-30T08:37:37.100Z,56.20
2018-04-30T08:40:04.630Z,55.20
2018-04-30T08:42:32.966Z,54.40
2018-04-30T08:45:00.517Z,54.90
2018-04-30T08:47:28.077Z,54.50
2018-04-30T08:49:55.648Z,55.60
2018-04-30T08:52:23.194Z,53.10
2018-04-30T08:54:50.768Z,51.80
2018-04-30T08:57:18.311Z,51.80
2018-04-30T08:59:45.879Z,51.70
2018-04-30T09:02:13.426Z,52.60
2018-04-30T09:04:40.995Z,51.70
2018-04-30T09:07:08.549Z,51.20
2018-04-30T09:09:36.122Z,49.80
2018-04-30T09:12:03.687Z,49.20
2018-04-30T09:14:31.254Z,50.10
2018-04-30T09:16:58.798Z,49.40
2018-04-30T09:19:26.367Z,48.50
2018-04-30T09:21:53.926Z,47.50
2018-04-30T09:24:21.491Z,47.80
2018-04-30T09:26:49.029Z,46.80
2018-04-30T09:29:16.596Z,45.60
2018-04-30T09:31:44.144Z,45.70
2018-04-30T09:34:11.713Z,46.00
2018-04-30T09:36:39.256Z,46.60
2018-04-30T09:39:06.810Z,44.60
2018-04-30T09:41:34.346Z,44.40
2018-04-30T09:44:01.927Z,44.80
2018-04-30T09:46:29.471Z,44.80
2018-04-30T09:48:57.035Z,44.50
2018-04-30T09:51:24.569Z,44.70
2018-04-30T09:53:52.897Z,43.40
2018-04-30T09:56:20.450Z,43.40
2018-04-30T09:58:48.017Z,44.20
2018-04-30T10:01:15.562Z,42.40
2018-04-30T10:03:43.092Z,42.10
2018-04-30T10:06:11.424Z,42.50
2018-04-30T10:08:38.958Z,42.50
2018-04-30T10:11:06.519Z,42.60
2018-04-30T10:13:34.061Z,42.30
2018-04-30T10:16:01.633Z,41.10
2018-04-30T10:18:29.188Z,41.40
2018-04-30T10:20:56.754Z,40.70
2018-04-30T10:23:24.353Z,40.00
2018-04-30T10:25:51.886Z,39.20
2018-04-30T10:28:19.433Z,39.20
2018-04-30T10:30:47.006Z,38.90
2018-04-30T10:33:14.570Z,39.40
2018-04-30T10:35:42.128Z,38.60
2018-04-30T10:38:10.443Z,38.90
2018-04-30T10:40:38.779Z,38.80
2018-04-30T10:43:06.327Z,38.70
2018-04-30T10:45:33.894Z,38.00
2018-04-30T10:48:01.429Z,37.50
2018-04-30T10:50:29.003Z,37.80
2018-04-30T10:52:56.569Z,37.60
2018-04-30T10:55:24.141Z,37.40
2018-04-30T10:57:51.684Z,37.20
2018-04-30T11:00:19.260Z,37.10
2018-04-30T11:02:46.803Z,36.70
2018-04-30T11:05:14.372Z,37.40
2018-04-30T11:07:41.924Z,37.50
2018-04-30T11:10:09.492Z,38.40
2018-04-30T11:12:37.043Z,38.00
2018-04-30T11:15:04.619Z,37.70
2018-04-30T11:17:32.160Z,37.60
2018-04-30T11:20:00.350Z,37.30
2018-04-30T11:22:27.919Z,36.70
2018-04-30T11:24:55.465Z,36.10
2018-04-30T11:27:23.031Z,35.30
2018-04-30T11:29:50.580Z,35.40
2018-04-30T11:32:18.148Z,36.00
2018-04-30T11:34:45.698Z,36.00
2018-04-30T11:37:13.283Z,35.70
2018-04-30T11:39:41.618Z,34.70
2018-04-30T11:42:09.210Z,34.70
2018-04-30T11:44:36.762Z,34.90
2018-04-30T11:47:04.429Z,34.40
2018-04-30T11:49:32.675Z,33.40
2018-04-30T11:52:00.260Z,33.20
2018-04-30T11:54:27.811Z,32.60
2018-04-30T11:56:55.386Z,32.60
2018-04-30T11:59:22.935Z,33.00
2018-04-30T12:01:50.518Z,31.50
2018-04-30T12:04:18.857Z,31.70
2018-04-30T12:06:46.429Z,31.70
2018-04-30T12:09:13.971Z,31.30
2018-04-30T12:11:41.567Z,30.30
2018-04-30T12:14:09.126Z,29.70
2018-04-30T12:16:36.729Z,29.40
2018-04-30T12:19:04.302Z,29.00
2018-04-30T12:21:31.882Z,29.60
2018-04-30T12:23:59.446Z,29.90
2018-04-30T12:26:27.032Z,29.90
2018-04-30T12:28:54.589Z,29.60
2018-04-30T12:31:22.175Z,28.10
2018-04-30T12:33:49.751Z,28.10
2018-04-30T12:36:17.306Z,28.30
2018-04-30T12:38:44.887Z,28.10
2018-04-30T12:41:12.447Z,28.40
2018-04-30T12:43:40.072Z,27.70
2018-04-30T12:46:07.585Z,28.10
2018-04-30T12:48:35.922Z,29.90
2018-04-30T12:51:03.479Z,29.60
2018-04-30T12:53:31.822Z,29.40
2018-04-30T12:55:59.448Z,29.40
2018-04-30T12:58:27.727Z,29.90
2018-04-30T13:00:55.291Z,29.30
2018-04-30T13:03:22.886Z,29.60
2018-04-30T13:05:51.212Z,30.00
2018-04-30T13:08:18.791Z,29.90
2018-04-30T13:10:46.361Z,30.00
2018-04-30T13:13:13.938Z,30.00
2018-04-30T13:15:41.504Z,30.10
2018-04-30T13:18:09.856Z,29.80
2018-04-30T13:20:37.407Z,29.80
2018-04-30T13:23:04.979Z,29.30
2018-04-30T13:25:32.538Z,29.50
2018-04-30T13:28:00.111Z,29.90
2018-04-30T13:30:27.660Z,29.50
2018-04-30T13:32:55.225Z,29.50
2018-04-30T13:35:22.773Z,29.70
2018-04-30T13:37:50.427Z,29.70
2018-04-30T13:40:18.052Z,29.20
2018-04-30T13:42:45.704Z,29.60
2018-04-30T13:45:13.360Z,29.60
2018-04-30T13:47:41.776Z,30.50
2018-04-30T13:50:09.400Z,30.50
2018-04-30T13:52:37.027Z,30.50
2018-04-30T13:55:04.596Z,30.40
2018-04-30T13:57:32.161Z,30.90
2018-04-30T13:59:59.711Z,30.60
2018-04-30T14:02:27.257Z,31.10
2018-04-30T14:04:54.839Z,31.00
2018-04-30T14:07:22.377Z,31.70
2018-04-30T14:09:49.954Z,31.60
2018-04-30T14:12:17.512Z,32.30
2018-04-30T14:14:45.073Z,32.50
2018-04-30T14:17:12.620Z,32.20
2018-04-30T14:19:40.184Z,32.70
2018-04-30T14:22:07.727Z,32.80
2018-04-30T14:24:35.290Z,32.60
2018-04-30T14:27:02.825Z,33.50
2018-04-30T14:29:30.392Z,34.40
2018-04-30T14:31:57.935Z,35.10
2018-04-30T14:34:25.494Z,35.60
2018-04-30T14:36:53.043Z,38.90
2018-04-30T14:39:21.377Z,47.50
2018-04-30T14:41:48.921Z,47.60
2018-04-30T14:44:16.495Z,48.10
2018-04-30T14:46:44.050Z,48.30
2018-04-30T14:49:11.619Z,48.00
2018-04-30T14:51:39.155Z,50.90
2018-04-30T14:54:06.711Z,52.00
2018-04-30T14:56:34.261Z,52.50
2018-04-30T14:59:01.824Z,52.50
2018-04-30T15:01:29.375Z,52.10
2018-04-30T15:03:56.968Z,52.40
2018-04-30T15:06:24.514Z,49.70
2018-04-30T15:08:52.090Z,50.90
2018-04-30T15:11:19.635Z,49.90
2018-04-30T15:13:47.211Z,51.20
2018-04-30T15:16:14.760Z,49.40
2018-04-30T15:18:42.354Z,49.00
2018-04-30T15:21:09.885Z,48.50
2018-04-30T15:23:37.419Z,48.00
2018-04-30T15:26:04.969Z,48.20
2018-04-30T15:28:32.504Z,48.00
2018-04-30T15:31:00.843Z,47.30
2018-04-30T15:33:28.388Z,47.20
2018-04-30T15:35:56.022Z,45.80
2018-04-30T15:38:23.558Z,44.70
2018-04-30T15:40:51.892Z,44.00
2018-04-30T15:43:19.436Z,44.00
2018-04-30T15:45:47.009Z,44.70
2018-04-30T15:48:14.560Z,45.80
2018-04-30T15:50:42.130Z,46.80
2018-04-30T15:53:09.682Z,46.20
2018-04-30T15:55:37.261Z,45.50
2018-04-30T15:58:04.800Z,45.80
2018-04-30T16:00:32.377Z,45.50
2018-04-30T16:02:59.921Z,46.60
2018-04-30T16:05:27.497Z,45.60
2018-04-30T16:07:55.039Z,45.70
2018-04-30T16:10:22.615Z,45.60
2018-04-30T16:12:50.159Z,43.70
2018-04-30T16:15:17.724Z,44.00
2018-04-30T16:17:45.274Z,43.80
2018-04-30T16:20:12.876Z,44.10
2018-04-30T16:22:40.419Z,43.90
2018-04-30T16:25:07.986Z,45.20
2018-04-30T16:27:36.493Z,45.90
2018-04-30T16:30:04.814Z,51.60
2018-04-30T16:32:32.346Z,51.70
2018-04-30T16:35:00.675Z,53.50
2018-04-30T16:37:28.306Z,53.50
2018-04-30T16:39:55.907Z,51.30
2018-04-30T16:42:23.555Z,51.00
2018-04-30T16:44:51.180Z,50.90
2018-04-30T16:47:18.787Z,51.10
2018-04-30T16:49:46.323Z,50.50
2018-04-30T16:52:13.882Z,50.70
2018-04-30T16:54:41.428Z,51.00
2018-04-30T16:57:10.016Z,51.00
2018-04-30T16:59:37.562Z,51.40
2018-04-30T17:02:05.135Z,51.40
2018-04-30T17:04:32.684Z,51.50
2018-04-30T17:07:00.245Z,51.60
2018-04-30T17:09:27.792Z,51.40
2018-04-30T17:11:55.370Z,51.70
2018-04-30T17:14:22.906Z,53.10
2018-04-30T17:16:51.232Z,58.40
2018-04-30T17:19:18.775Z,58.30
2018-04-30T17:21:46.340Z,57.60
2018-04-30T17:24:13.935Z,58.00
2018-04-30T17:26:41.486Z,55.20
2018-04-30T17:29:09.047Z,54.20
2018-04-30T17:31:36.628Z,53.50
2018-04-30T17:34:04.940Z,52.10
2018-04-30T17:36:32.720Z,52.10
2018-04-30T17:39:00.288Z,50.40
2018-04-30T17:41:28.639Z,51.90
2018-04-30T17:43:56.180Z,51.90
2018-04-30T17:46:23.771Z,52.60
2018-04-30T17:48:51.301Z,53.70
2018-04-30T17:51:19.645Z,54.90
2018-04-30T17:53:47.187Z,54.90
2018-04-30T17:56:14.773Z,55.70
2018-04-30T17:58:43.177Z,56.80
2018-04-30T18:01:10.668Z,56.80
2018-04-30T18:03:38.210Z,57.00
2018-04-30T18:06:05.751Z,57.10
2018-04-30T18:08:33.341Z,57.40
2018-04-30T18:11:00.869Z,57.50
2018-04-30T18:13:29.197Z,58.20
2018-04-30T18:15:56.760Z,58.20
2018-04-30T18:18:24.322Z,58.70
2018-04-30T18:20:51.858Z,58.70
2018-04-30T18:23:19.417Z,58.70
2018-04-30T18:25:46.956Z,58.30
2018-04-30T18:28:14.536Z,58.40
2018-04-30T18:30:42.076Z,58.20
2018-04-30T18:33:09.641Z,58.40
2018-04-30T18:35:37.182Z,58.30
2018-04-30T18:38:04.751Z,58.60
2018-04-30T18:40:32.310Z,58.60
2018-04-30T18:42:59.896Z,58.80
2018-04-30T18:45:27.458Z,58.80
2018-04-30T18:47:55.029Z,58.80
2018-04-30T18:50:22.576Z,59.10
2018-04-30T18:52:50.155Z,59.00
2018-04-30T18:55:17.696Z,59.30
2018-04-30T18:57:45.266Z,59.40
2018-04-30T19:00:12.812Z,59.30
2018-04-30T19:02:40.423Z,59.30
2018-04-30T19:05:08.725Z,59.50
2018-04-30T19:07:36.284Z,59.40
2018-04-30T19:10:03.822Z,59.90
2018-04-30T19:12:32.155Z,59.70
2018-04-30T19:14:59.696Z,59.80
2018-04-30T19:17:27.260Z,60.20
2018-04-30T19:19:54.807Z,60.70
2018-04-30T19:22:22.383Z,60.10
2018-04-30T19:24:49.922Z,60.80
2018-04-30T19:27:17.480Z,60.80
2018-04-30T19:29:45.055Z,61.10
2018-04-30T19:32:12.591Z,61.30
2018-04-30T19:34:40.149Z,60.70
2018-04-30T19:37:07.738Z,60.80
2018-04-30T19:39:36.059Z,60.30
2018-04-30T19:42:03.584Z,60.20
2018-04-30T19:44:31.152Z,59.90
2018-04-30T19:46:58.702Z,59.90
2018-04-30T19:49:26.279Z,59.90
2018-04-30T19:51:53.820Z,59.70
2018-04-30T19:54:21.392Z,59.60
2018-04-30T19:56:48.926Z,59.70
2018-04-30T19:59:16.486Z,59.30
2018-04-30T20:01:44.034Z,59.30
2018-04-30T20:04:11.603Z,59.00
2018-04-30T20:06:39.139Z,58.40
2018-04-30T20:09:07.468Z,58.40
2018-04-30T20:11:34.999Z,58.40
2018-04-30T20:14:02.584Z,58.10
2018-04-30T20:16:30.124Z,57.00
2018-04-30T20:18:57.676Z,56.90
2018-04-30T20:21:25.223Z,56.00
2018-04-30T20:23:52.781Z,55.40
2018-04-30T20:26:20.319Z,55.30
2018-04-30T20:28:48.649Z,55.30
2018-04-30T20:31:16.195Z,55.30
2018-04-30T20:33:43.760Z,54.90
2018-04-30T20:36:11.310Z,54.20
2018-04-30T20:38:38.877Z,53.80
2018-04-30T20:41:06.419Z,52.70
2018-04-30T20:43:33.973Z,52.80
2018-04-30T20:46:01.536Z,52.10
2018-04-30T20:48:29.096Z,51.10
2018-04-30T20:50:56.675Z,50.50
2018-04-30T20:53:24.214Z,50.70
2018-04-30T20:55:51.786Z,50.70
2018-04-30T20:58:19.353Z,50.60
2018-04-30T21:00:46.905Z,50.40
2018-04-30T21:03:14.465Z,49.70
2018-04-30T21:05:42.108Z,50.00
2018-04-30T21:08:09.732Z,50.00
2018-04-30T21:10:38.120Z,50.00
2018-04-30T21:13:06.447Z,49.60
2018-04-30T21:15:34.017Z,49.50
2018-04-30T21:18:01.574Z,49.20
2018-04-30T21:20:29.147Z,49.10
2018-04-30T21:22:56.689Z,49.00
2018-04-30T21:25:24.316Z,49.20
2018-04-30T21:27:51.827Z,49.50
2018-04-30T21:30:19.377Z,49.20
2018-04-30T21:32:46.930Z,49.10
2018-04-30T21:35:14.495Z,49.50
2018-04-30T21:37:42.048Z,49.20
2018-04-30T21:40:09.645Z,49.00
2018-04-30T21:42:37.191Z,49.20
2018-04-30T21:45:04.751Z,49.00
2018-04-30T21:47:32.348Z,49.20
2018-04-30T21:49:59.875Z,49.50
2018-04-30T21:52:27.430Z,49.90
2018-04-30T21:54:54.990Z,49.90
2018-04-30T21:57:22.527Z,50.00
2018-04-30T21:59:50.075Z,50.30
2018-04-30T22:02:17.638Z,50.50
2018-04-30T22:04:45.225Z,50.60
2018-04-30T22:07:12.791Z,50.50
2018-04-30T22:09:40.333Z,50.50
2018-04-30T22:12:07.921Z,50.70
2018-04-30T22:14:35.471Z,50.70
2018-04-30T22:17:03.039Z,50.80
2018-04-30T22:19:30.585Z,51.00
2018-04-30T22:21:58.148Z,51.00
2018-04-30T22:24:25.701Z,50.70
2018-04-30T22:26:53.273Z,50.90
2018-04-30T22:29:20.822Z,51.00
2018-04-30T22:31:48.383Z,51.00
2018-04-30T22:34:15.925Z,51.30
2018-04-30T22:36:43.550Z,51.40
2018-04-30T22:39:11.059Z,51.50
2018-04-30T22:41:38.629Z,51.70
2018-04-30T22:44:06.179Z,51.90
2018-04-30T22:46:33.745Z,52.10
2018-04-30T22:49:01.295Z,52.30
2018-04-30T22:51:28.871Z,52.60
2018-04-30T22:53:56.412Z,52.70
2018-04-30T22:56:23.975Z,53.10
2018-04-30T22:58:51.517Z,53.40
2018-04-30T23:01:19.083Z,53.70
2018-04-30T23:03:46.627Z,53.90
2018-04-30T23:06:14.203Z,54.10
2018-04-30T23:08:41.746Z,54.40
2018-04-30T23:11:09.304Z,54.40
2018-04-30T23:13:36.840Z,54.60
2018-04-30T23:16:04.394Z,54.60
2018-04-30T23:18:32.700Z,54.80
2018-04-30T23:21:00.280Z,54.80
2018-04-30T23:23:27.824Z,54.90
2018-04-30T23:25:55.451Z,54.90
2018-04-30T23:28:23.069Z,55.20
2018-04-30T23:30:50.713Z,55.10
2018-04-30T23:33:18.341Z,55.70
2018-04-30T23:35:45.965Z,55.30
2018-04-30T23:38:14.392Z,55.40
2018-04-30T23:40:42.026Z,55.40
2018-04-30T23:43:10.435Z,55.40
2018-04-30T23:45:38.002Z,55.40
2018-04-30T23:48:05.572Z,55.70
2018-04-30T23:50:33.120Z,55.90
2018-04-30T23:53:00.687Z,55.90
2018-04-30T23:55:28.265Z,56.00
2018-04-30T23:57:55.830Z,55.90
